createdAt,value
2022-10-21T00:01:55.877Z,100488.00
2022-10-21T00:03:58.373Z,100496.03
2022-10-21T00:06:00.388Z,100504.00
2022-10-21T00:08:02.700Z,100501.28
2022-10-21T00:10:05.961Z,100503.09
2022-10-21T00:12:08.276Z,100498.66
2022-10-21T00:14:35.436Z,100498.03
2022-10-21T00:16:37.962Z,100492.44
2022-10-21T00:18:41.394Z,100494.97
2022-10-21T00:20:43.489Z,100495.03
2022-10-21T00:22:45.568Z,100485.25
2022-10-21T00:24:48.109Z,100492.53
2022-10-21T00:26:50.982Z,100499.66
2022-10-21T00:28:59.309Z,100489.00
2022-10-21T00:31:01.838Z,100488.00
2022-10-21T00:33:04.051Z,100478.16
2022-10-21T00:35:06.561Z,100490.63
2022-10-21T00:37:12.029Z,100482.63
2022-10-21T00:39:14.019Z,100484.47
2022-10-21T00:41:19.987Z,100478.34
2022-10-21T00:43:22.477Z,100475.69
2022-10-21T00:45:29.651Z,100473.09
2022-10-21T00:47:38.244Z,100468.84
2022-10-21T00:49:46.425Z,100471.66
2022-10-21T00:51:52.930Z,100467.47
2022-10-21T00:53:55.115Z,100478.22
2022-10-21T00:56:04.014Z,100468.53
2022-10-21T00:58:08.764Z,100466.06
2022-10-21T01:00:14.165Z,100455.50
2022-10-21T01:02:16.762Z,100462.69
2022-10-21T01:04:22.652Z,100456.59
2022-10-21T01:06:26.438Z,100458.28
2022-10-21T01:08:29.556Z,100452.91
2022-10-21T01:10:31.971Z,100456.31
2022-10-21T01:12:50.013Z,100445.72
2022-10-21T01:14:58.406Z,100444.88
2022-10-21T01:17:15.500Z,100443.19
2022-10-21T01:19:36.308Z,100434.28
2022-10-21T01:21:56.188Z,100439.63
2022-10-21T01:26:05.930Z,100441.28
2022-10-21T01:28:15.664Z,100435.91
2022-10-21T01:30:19.474Z,100442.25
2022-10-21T01:32:42.121Z,100441.31
2022-10-21T01:34:56.332Z,100428.94
2022-10-21T01:37:04.605Z,100421.00
2022-10-21T01:39:31.017Z,100426.16
2022-10-21T01:41:48.732Z,100427.03
2022-10-21T01:44:14.398Z,100422.47
2022-10-21T01:46:26.194Z,100429.72
2022-10-21T01:48:34.009Z,100424.31
2022-10-21T01:50:42.568Z,100425.09
2022-10-21T01:52:49.977Z,100419.81
2022-10-21T01:54:59.176Z,100422.72
2022-10-21T02:00:50.900Z,100428.84
2022-10-21T02:02:52.997Z,100421.84
2022-10-21T02:04:56.371Z,100421.88
2022-10-21T02:06:58.698Z,100418.25
2022-10-21T02:09:00.965Z,100419.00
2022-10-21T02:11:07.151Z,100418.16
2022-10-21T02:13:10.999Z,100415.47
2022-10-21T02:15:15.699Z,100411.88
2022-10-21T02:17:20.241Z,100410.13
2022-10-21T02:19:22.173Z,100416.34
2022-10-21T02:21:28.370Z,100414.59
2022-10-21T02:23:43.931Z,100412.84
2022-10-21T02:25:50.749Z,100415.47
2022-10-21T02:27:53.440Z,100405.69
2022-10-21T02:34:06.349Z,100407.72
2022-10-21T02:40:29.236Z,100413.22
2022-10-21T02:42:40.167Z,100400.66
2022-10-21T02:48:37.485Z,100409.38
2022-10-21T02:50:39.719Z,100405.13
2022-10-21T02:52:41.666Z,100402.38
2022-10-21T02:54:43.454Z,100398.88
2022-10-21T02:56:45.230Z,100403.44
2022-10-21T02:58:47.090Z,100398.97
2022-10-21T03:00:49.343Z,100391.91
2022-10-21T03:02:51.178Z,100393.56
2022-10-21T03:04:53.055Z,100398.03
2022-10-21T03:06:55.137Z,100393.53
2022-10-21T03:08:57.372Z,100396.16
2022-10-21T03:10:59.566Z,100399.59
2022-10-21T03:13:01.575Z,100386.47
2022-10-21T03:15:04.061Z,100391.88
2022-10-21T03:17:06.208Z,100386.50
2022-10-21T03:23:08.146Z,100402.72
2022-10-21T03:25:10.344Z,100399.97
2022-10-21T03:27:12.252Z,100394.53
2022-10-21T03:29:14.349Z,100401.69
2022-10-21T03:31:16.365Z,100398.00
2022-10-21T03:33:18.251Z,100405.09
2022-10-21T03:35:20.080Z,100401.47
2022-10-21T03:37:21.924Z,100401.41
2022-10-21T03:39:23.854Z,100398.72
2022-10-21T03:41:25.805Z,100402.28
2022-10-21T03:43:27.625Z,100398.72
2022-10-21T03:49:02.828Z,100397.88
2022-10-21T03:51:08.754Z,100396.09
2022-10-21T03:53:24.432Z,100397.91
2022-10-21T03:55:32.545Z,100398.97
2022-10-21T03:57:34.401Z,100398.09
2022-10-21T03:59:36.273Z,100399.84
2022-10-21T04:01:38.120Z,100399.75
2022-10-21T04:03:41.296Z,100398.88
2022-10-21T04:05:43.170Z,100398.84
2022-10-21T04:07:49.290Z,100406.88
2022-10-21T04:09:54.072Z,100398.91
2022-10-21T04:11:56.118Z,100404.25
2022-10-21T04:13:58.197Z,100397.94
2022-10-21T04:16:02.896Z,100399.81
2022-10-21T04:18:06.550Z,100402.50
2022-10-21T04:20:09.759Z,100405.22
2022-10-21T04:22:11.722Z,100402.66
2022-10-21T04:24:13.843Z,100405.28
2022-10-21T04:26:15.751Z,100402.66
2022-10-21T04:28:17.606Z,100405.41
2022-10-21T04:30:19.956Z,100401.81
2022-10-21T04:32:21.667Z,100398.22
2022-10-21T04:34:23.558Z,100393.69
2022-10-21T04:36:25.525Z,100408.13
2022-10-21T04:38:28.190Z,100400.22
2022-10-21T04:40:30.442Z,100404.75
2022-10-21T04:42:32.593Z,100398.56
2022-10-21T04:44:34.481Z,100402.09
2022-10-21T04:46:36.465Z,100395.88
2022-10-21T04:48:38.364Z,100393.97
2022-10-21T04:50:40.450Z,100395.75
2022-10-21T04:52:42.351Z,100390.47
2022-10-21T04:54:44.296Z,100390.53
2022-10-21T04:56:46.216Z,100388.81
2022-10-21T04:58:48.299Z,100379.88
2022-10-21T05:04:45.048Z,100389.09
2022-10-21T05:06:46.997Z,100393.59
2022-10-21T05:08:48.908Z,100386.59
2022-10-21T05:10:58.368Z,100380.31
2022-10-21T05:13:00.645Z,100383.03
2022-10-21T05:15:02.602Z,100387.38
2022-10-21T05:17:04.607Z,100380.22
2022-10-21T05:19:06.716Z,100381.13
2022-10-21T05:21:08.876Z,100368.66
2022-10-21T05:23:10.921Z,100373.13
2022-10-21T05:25:15.253Z,100373.09
2022-10-21T05:27:17.276Z,100373.91
2022-10-21T05:29:44.469Z,100370.41
2022-10-21T05:31:46.290Z,100371.16
2022-10-21T05:33:48.225Z,100368.41
2022-10-21T05:36:05.121Z,100363.97
2022-10-21T05:38:07.060Z,100366.44
2022-10-21T05:40:09.353Z,100374.28
2022-10-21T05:42:11.350Z,100373.25
2022-10-21T05:44:13.372Z,100369.47
2022-10-21T05:46:15.327Z,100363.91
2022-10-21T05:48:20.542Z,100378.88
2022-10-21T05:50:25.085Z,100371.53
2022-10-21T05:52:26.953Z,100373.16
2022-10-21T05:54:28.816Z,100375.63
2022-10-21T05:56:31.345Z,100380.75
2022-10-21T05:58:35.021Z,100373.47
2022-10-21T06:00:36.939Z,100371.53
2022-10-21T06:02:39.165Z,100372.28
2022-10-21T06:04:41.279Z,100373.03
2022-10-21T06:06:43.305Z,100363.88
2022-10-21T06:08:45.267Z,100360.06
2022-10-21T06:10:47.400Z,100363.41
2022-10-21T06:12:49.327Z,100371.13
2022-10-21T06:14:51.333Z,100376.25
2022-10-21T06:16:53.324Z,100376.97
2022-10-21T06:18:57.910Z,100369.69
2022-10-21T06:21:00.098Z,100373.88
2022-10-21T06:23:02.096Z,100371.19
2022-10-21T06:25:04.245Z,100370.88
2022-10-21T06:27:06.987Z,100371.56
2022-10-21T06:29:08.929Z,100377.56
2022-10-21T06:31:16.588Z,100381.84
2022-10-21T06:33:22.109Z,100373.47
2022-10-21T06:35:26.687Z,100385.09
2022-10-21T06:37:28.433Z,100379.25
2022-10-21T06:39:30.667Z,100379.94
2022-10-21T06:41:32.557Z,100387.84
2022-10-21T06:43:35.310Z,100370.75
2022-10-21T06:45:37.801Z,100366.00
2022-10-21T06:47:40.195Z,100374.94
2022-10-21T06:49:42.440Z,100371.34
2022-10-21T06:51:44.371Z,100376.44
2022-10-21T06:53:47.206Z,100378.28
2022-10-21T06:55:49.064Z,100374.69
2022-10-21T06:57:51.430Z,100379.75
2022-10-21T06:59:53.379Z,100385.59
2022-10-21T07:02:00.044Z,100382.88
2022-10-21T07:04:04.448Z,100382.44
2022-10-21T07:06:07.001Z,100384.00
2022-10-21T07:08:11.907Z,100380.06
2022-10-21T07:10:14.862Z,100377.16
2022-10-21T07:12:17.166Z,100377.31
2022-10-21T07:14:19.189Z,100368.72
2022-10-21T07:16:27.747Z,100364.59
2022-10-21T07:18:30.893Z,100364.47
2022-10-21T07:20:34.479Z,100362.63
2022-10-21T07:22:36.439Z,100362.16
2022-10-21T07:24:38.343Z,100358.56
2022-10-21T07:26:41.179Z,100352.19
2022-10-21T07:28:47.086Z,100353.97
2022-10-21T07:30:49.292Z,100367.78
2022-10-21T07:32:51.692Z,100372.56
2022-10-21T07:34:53.607Z,100364.97
2022-10-21T07:36:55.490Z,100368.91
2022-10-21T07:39:03.850Z,100366.16
2022-10-21T07:41:06.177Z,100357.47
2022-10-21T07:43:09.172Z,100354.66
2022-10-21T07:45:12.879Z,100347.22
2022-10-21T07:47:14.745Z,100341.44
2022-10-21T07:49:18.950Z,100347.16
2022-10-21T07:51:28.362Z,100349.28
2022-10-21T07:53:32.324Z,100352.38
2022-10-21T07:55:36.552Z,100341.16
2022-10-21T07:57:38.793Z,100336.34
2022-10-21T07:59:40.897Z,100347.75
2022-10-21T08:03:55.967Z,100343.69
2022-10-21T08:05:58.132Z,100350.44
2022-10-21T08:08:00.372Z,100352.16
2022-10-21T08:10:02.821Z,100345.22
2022-10-21T08:12:04.723Z,100346.97
2022-10-21T08:14:08.506Z,100349.66
2022-10-21T08:16:10.430Z,100354.72
2022-10-21T08:18:12.438Z,100352.06
2022-10-21T08:20:14.358Z,100343.66
2022-10-21T08:22:16.199Z,100347.59
2022-10-21T08:24:18.119Z,100341.03
2022-10-21T08:26:20.141Z,100334.28
2022-10-21T08:28:24.536Z,100332.06
2022-10-21T08:30:32.284Z,100331.84
2022-10-21T08:32:34.282Z,100333.25
2022-10-21T08:34:36.313Z,100327.63
2022-10-21T08:36:39.125Z,100338.03
2022-10-21T08:42:42.667Z,100324.59
2022-10-21T08:44:46.602Z,100305.50
2022-10-21T08:47:05.757Z,100308.63
2022-10-21T08:49:16.529Z,100314.31
2022-10-21T08:51:32.209Z,100315.50
2022-10-21T08:53:45.366Z,100312.28
2022-10-21T08:55:48.312Z,100317.97
2022-10-21T08:57:53.941Z,100319.59
2022-10-21T08:59:59.209Z,100308.34
2022-10-21T09:02:25.071Z,100318.88
2022-10-21T09:05:12.078Z,100315.78
2022-10-21T09:07:28.413Z,100313.63
2022-10-21T09:09:52.415Z,100320.41
2022-10-21T09:12:14.374Z,100309.25
2022-10-21T09:14:44.077Z,100308.16
2022-10-21T09:16:54.533Z,100314.25
2022-10-21T09:19:34.287Z,100310.34
2022-10-21T09:21:45.527Z,100310.78
2022-10-21T09:23:57.248Z,100319.50
2022-10-21T09:26:06.368Z,100313.81
2022-10-21T09:28:14.311Z,100309.03
2022-10-21T09:30:24.548Z,100296.94
2022-10-21T09:32:32.668Z,100302.69
2022-10-21T09:34:58.094Z,100307.88
2022-10-21T09:37:02.843Z,100301.03
2022-10-21T09:39:22.186Z,100293.63
2022-10-21T09:41:30.433Z,100291.31
2022-10-21T09:43:33.275Z,100290.88
2022-10-21T09:45:44.364Z,100300.47
2022-10-21T09:47:52.100Z,100295.41
2022-10-21T09:50:09.817Z,100299.00
2022-10-21T09:52:12.349Z,100299.75
2022-10-21T09:54:22.258Z,100300.25
2022-10-21T09:56:26.132Z,100303.38
2022-10-21T09:58:36.777Z,100298.50
2022-10-21T10:00:53.112Z,100297.28
2022-10-21T10:03:06.804Z,100294.13
2022-10-21T10:05:36.308Z,100294.66
2022-10-21T10:07:38.415Z,100291.28
2022-10-21T10:09:46.151Z,100298.31
2022-10-21T10:12:12.637Z,100300.06
2022-10-21T10:14:32.616Z,100298.75
2022-10-21T10:16:34.802Z,100292.69
2022-10-21T10:18:36.984Z,100292.63
2022-10-21T10:20:38.933Z,100285.06
2022-10-21T10:22:43.199Z,100284.88
2022-10-21T10:24:45.561Z,100275.41
2022-10-21T10:26:48.745Z,100270.78
2022-10-21T10:29:00.840Z,100275.16
2022-10-21T10:35:05.032Z,100269.06
2022-10-21T10:37:22.970Z,100270.13
2022-10-21T10:39:30.764Z,100263.44
2022-10-21T10:41:38.276Z,100260.47
2022-10-21T10:43:47.929Z,100247.53
2022-10-21T10:46:10.424Z,100238.84
2022-10-21T10:48:23.105Z,100224.09
2022-10-21T10:50:44.566Z,100215.69
2022-10-21T10:52:46.462Z,100213.56
2022-10-21T10:54:49.758Z,100210.63
2022-10-21T10:57:04.128Z,100211.22
2022-10-21T10:59:14.706Z,100209.09
2022-10-21T11:01:41.975Z,100210.97
2022-10-21T11:03:55.198Z,100203.22
2022-10-21T11:06:07.305Z,100195.06
2022-10-21T11:08:29.748Z,100196.78
2022-10-21T11:11:03.657Z,100191.28
2022-10-21T11:13:12.696Z,100189.13
2022-10-21T11:15:16.566Z,100183.22
2022-10-21T11:17:21.752Z,100184.09
2022-10-21T11:19:36.049Z,100184.59
2022-10-21T11:21:56.536Z,100181.66
2022-10-21T11:24:19.505Z,100189.34
2022-10-21T11:26:40.348Z,100192.84
2022-10-21T11:29:10.580Z,100190.72
2022-10-21T11:32:09.707Z,100191.38
2022-10-21T11:34:37.029Z,100185.34
2022-10-21T11:36:57.574Z,100179.72
2022-10-21T11:39:29.436Z,100176.00
2022-10-21T11:42:06.635Z,100172.97
2022-10-21T11:44:48.522Z,100163.16
2022-10-21T11:47:12.461Z,100164.22
2022-10-21T11:49:38.153Z,100153.91
2022-10-21T11:51:43.401Z,100153.69
2022-10-21T11:54:03.656Z,100149.09
2022-10-21T11:56:13.254Z,100150.66
2022-10-21T11:58:18.293Z,100147.25
2022-10-21T12:00:27.116Z,100139.41
2022-10-21T12:03:00.962Z,100133.25
2022-10-21T12:05:21.856Z,100135.03
2022-10-21T12:07:40.944Z,100125.00
2022-10-21T12:10:00.015Z,100120.91
2022-10-21T12:12:09.738Z,100114.44
2022-10-21T12:14:43.533Z,100113.38
2022-10-21T12:16:47.019Z,100107.06
2022-10-21T12:18:56.222Z,100107.34
2022-10-21T12:20:59.858Z,100110.28
2022-10-21T12:23:06.169Z,100109.59
2022-10-21T12:25:16.964Z,100106.13
2022-10-21T12:28:10.326Z,100113.59
2022-10-21T12:30:15.242Z,100110.66
2022-10-21T12:32:31.844Z,100094.66
2022-10-21T12:34:34.615Z,100101.63
2022-10-21T12:37:26.885Z,100095.53
2022-10-21T12:39:34.510Z,100082.56
2022-10-21T12:41:38.541Z,100085.84
2022-10-21T12:43:41.839Z,100092.16
2022-10-21T12:45:44.395Z,100082.91
2022-10-21T12:47:46.654Z,100080.19
2022-10-21T12:50:23.607Z,100077.47
2022-10-21T12:52:25.834Z,100076.28
2022-10-21T12:54:31.103Z,100078.16
2022-10-21T12:56:51.355Z,100077.69
2022-10-21T12:59:03.415Z,100084.69
2022-10-21T13:01:27.291Z,100080.19
2022-10-21T13:03:51.285Z,100063.09
2022-10-21T13:05:53.077Z,100058.19
2022-10-21T13:08:23.016Z,100059.59
2022-10-21T13:10:26.506Z,100058.38
2022-10-21T13:12:28.457Z,100051.84
2022-10-21T13:14:45.737Z,100047.38
2022-10-21T13:16:48.502Z,100059.06
2022-10-21T13:18:50.578Z,100061.09
2022-10-21T13:20:58.805Z,100064.34
2022-10-21T13:23:31.794Z,100065.56
2022-10-21T13:25:36.358Z,100066.41
2022-10-21T13:27:39.600Z,100062.63
2022-10-21T13:29:45.653Z,100064.47
2022-10-21T13:31:48.029Z,100055.78
2022-10-21T13:33:55.600Z,100060.25
2022-10-21T13:36:04.260Z,100057.53
2022-10-21T13:38:22.318Z,100044.75
2022-10-21T13:40:30.834Z,100042.16
2022-10-21T13:42:40.674Z,100042.16
2022-10-21T13:44:53.351Z,100042.16
2022-10-21T13:46:55.462Z,100041.84
2022-10-21T13:49:01.503Z,100032.91
2022-10-21T13:51:16.036Z,100032.44
2022-10-21T13:53:18.112Z,100028.84
2022-10-21T13:55:23.128Z,100027.41
2022-10-21T13:57:32.504Z,100011.44
2022-10-21T13:59:35.128Z,100010.78
2022-10-21T14:01:52.765Z,100011.09
2022-10-21T14:04:14.641Z,100018.41
2022-10-21T14:06:26.064Z,100007.16
2022-10-21T14:08:33.223Z,100002.88
2022-10-21T14:10:36.403Z,99999.28
2022-10-21T14:12:46.549Z,100005.13
2022-10-21T14:14:49.796Z,99996.63
2022-10-21T14:16:55.877Z,99991.09
2022-10-21T14:19:01.812Z,99994.91
2022-10-21T14:21:05.374Z,99995.00
2022-10-21T14:23:15.934Z,99987.81
2022-10-21T14:25:19.116Z,100003.16
2022-10-21T14:27:46.945Z,99990.25
2022-10-21T14:29:49.467Z,99984.31
2022-10-21T14:31:51.609Z,99981.59
2022-10-21T14:33:54.062Z,99979.94
2022-10-21T14:36:05.438Z,99985.91
2022-10-21T14:38:29.528Z,99987.09
2022-10-21T14:40:37.887Z,99986.19
2022-10-21T14:42:41.667Z,99986.19
2022-10-21T14:44:46.681Z,99986.19
2022-10-21T14:46:51.419Z,99985.31
2022-10-21T14:49:03.590Z,99982.81
2022-10-21T14:51:13.575Z,99971.06
2022-10-21T14:53:21.590Z,99973.78
2022-10-21T14:55:30.064Z,99955.09
2022-10-21T14:57:40.750Z,99959.31
2022-10-21T14:59:43.843Z,99965.63
2022-10-21T15:01:46.193Z,99963.28
2022-10-21T15:03:50.153Z,99969.03
2022-10-21T15:06:10.307Z,99963.41
2022-10-21T15:08:21.375Z,99955.53
2022-10-21T15:10:23.477Z,99965.56
2022-10-21T15:12:26.010Z,99969.50
2022-10-21T15:14:31.954Z,99967.13
2022-10-21T15:18:42.482Z,99959.94
2022-10-21T15:21:05.792Z,99955.16
2022-10-21T15:23:20.037Z,99951.94
2022-10-21T15:25:24.776Z,99945.72
2022-10-21T15:27:36.599Z,99942.53
2022-10-21T15:29:45.008Z,99944.75
2022-10-21T15:31:47.412Z,99939.59
2022-10-21T15:33:51.043Z,99937.94
2022-10-21T15:36:09.716Z,99936.72
2022-10-21T15:38:11.986Z,99935.84
2022-10-21T15:40:14.223Z,99930.81
2022-10-21T15:42:18.624Z,99928.25
2022-10-21T15:44:31.822Z,99924.53
2022-10-21T15:46:35.589Z,99919.97
2022-10-21T15:48:37.726Z,99914.75
2022-10-21T15:50:43.018Z,99924.13
2022-10-21T15:52:45.376Z,99917.25
2022-10-21T15:54:47.755Z,99928.38
2022-10-21T15:56:52.457Z,99933.22
2022-10-21T15:58:54.765Z,99935.25
2022-10-21T16:00:56.815Z,99940.75
2022-10-21T16:02:59.442Z,99940.22
2022-10-21T16:05:01.510Z,99935.97
2022-10-21T16:07:09.405Z,99935.38
2022-10-21T16:09:16.754Z,99937.47
2022-10-21T16:11:34.645Z,99933.53
2022-10-21T16:14:10.250Z,99932.53
2022-10-21T16:16:20.993Z,99937.19
2022-10-21T16:18:22.926Z,99933.72
2022-10-21T16:20:29.669Z,99932.13
2022-10-21T16:22:31.734Z,99935.81
2022-10-21T16:24:33.654Z,99940.69
2022-10-21T16:26:40.487Z,99941.13
2022-10-21T16:28:43.071Z,99944.97
2022-10-21T16:30:45.180Z,99937.88
2022-10-21T16:32:47.764Z,99942.69
2022-10-21T16:34:49.747Z,99941.00
2022-10-21T16:36:51.765Z,99941.44
2022-10-21T16:38:54.061Z,99930.94
2022-10-21T16:40:56.251Z,99930.41
2022-10-21T16:42:58.190Z,99924.28
2022-10-21T16:45:00.257Z,99938.00
2022-10-21T16:47:03.424Z,99942.63
2022-10-21T16:49:13.099Z,99933.00
2022-10-21T16:51:15.792Z,99936.75
2022-10-21T16:53:17.955Z,99935.16
2022-10-21T16:55:20.288Z,99933.50
2022-10-21T16:57:22.278Z,99929.28
2022-10-21T16:59:24.218Z,99935.75
2022-10-21T17:01:26.523Z,99933.19
2022-10-21T17:03:28.442Z,99927.97
2022-10-21T17:05:30.766Z,99933.50
2022-10-21T17:07:34.124Z,99938.16
2022-10-21T17:09:36.320Z,99937.44
2022-10-21T17:11:40.043Z,99951.94
2022-10-21T17:13:43.323Z,99943.09
2022-10-21T17:15:45.747Z,99942.34
2022-10-21T17:17:47.768Z,99944.34
2022-10-21T17:19:50.295Z,99942.75
2022-10-21T17:25:45.577Z,99939.63
2022-10-21T17:27:47.491Z,99938.94
2022-10-21T17:29:49.387Z,99937.81
2022-10-21T17:31:51.813Z,99930.75
2022-10-21T17:33:57.037Z,99928.97
2022-10-21T17:35:59.022Z,99934.16
2022-10-21T17:38:01.723Z,99938.63
2022-10-21T17:40:03.778Z,99929.69
2022-10-21T17:42:06.024Z,99933.22
2022-10-21T17:44:12.405Z,99934.94
2022-10-21T17:46:18.218Z,99925.97
2022-10-21T17:48:20.101Z,99926.84
2022-10-21T17:50:26.152Z,99928.56
2022-10-21T17:52:28.042Z,99935.19
2022-10-21T17:54:31.721Z,99928.84
2022-10-21T17:56:36.468Z,99925.22
2022-10-21T17:58:38.449Z,99925.31
2022-10-21T18:00:43.767Z,99925.47
2022-10-21T18:02:46.785Z,99926.34
2022-10-21T18:04:48.633Z,99929.06
2022-10-21T18:06:50.679Z,99924.69
2022-10-21T18:08:53.134Z,99923.81
2022-10-21T18:10:57.738Z,99931.03
2022-10-21T18:12:59.780Z,99923.00
2022-10-21T18:15:02.320Z,99918.63
2022-10-21T18:17:04.860Z,99919.66
2022-10-21T18:19:06.997Z,99923.31
2022-10-21T18:21:12.492Z,99925.13
2022-10-21T18:23:14.994Z,99926.09
2022-10-21T18:25:17.137Z,99921.72
2022-10-21T18:27:19.169Z,99920.84
2022-10-21T18:29:22.271Z,99920.84
2022-10-21T18:31:26.402Z,99917.34
2022-10-21T18:33:28.656Z,99920.13
2022-10-21T18:35:30.563Z,99913.84
2022-10-21T18:37:34.182Z,99916.53
2022-10-21T18:39:36.460Z,99913.84
2022-10-21T18:41:38.753Z,99909.38
2022-10-21T18:43:40.688Z,99912.97
2022-10-21T18:45:46.151Z,99912.16
2022-10-21T18:47:49.902Z,99919.31
2022-10-21T18:49:51.787Z,99914.00
2022-10-21T18:51:53.674Z,99919.31
2022-10-21T18:53:55.921Z,99914.06
2022-10-21T18:55:57.680Z,99915.81
2022-10-21T18:57:59.607Z,99904.03
2022-10-21T19:00:01.613Z,99908.75
2022-10-21T19:02:04.176Z,99918.66
2022-10-21T19:04:06.779Z,99908.66
2022-10-21T19:06:32.010Z,99911.84
2022-10-21T19:08:33.897Z,99914.22
2022-10-21T19:10:35.738Z,99918.13
2022-10-21T19:12:37.640Z,99909.91
2022-10-21T19:14:39.376Z,99914.81
2022-10-21T19:16:42.268Z,99918.19
2022-10-21T19:18:44.038Z,99919.31
2022-10-21T19:20:46.039Z,99914.81
2022-10-21T19:22:47.955Z,99919.69
2022-10-21T19:24:49.794Z,99914.91
2022-10-21T19:26:56.598Z,99920.47
2022-10-21T19:29:09.681Z,99907.91
2022-10-21T19:31:11.976Z,99909.56
2022-10-21T19:33:13.809Z,99915.19
2022-10-21T19:35:15.681Z,99918.00
2022-10-21T19:37:17.573Z,99914.41
2022-10-21T19:39:20.081Z,99925.16
2022-10-21T19:41:23.157Z,99912.66
2022-10-21T19:43:26.021Z,99913.63
2022-10-21T19:45:28.131Z,99916.31
2022-10-21T19:47:31.366Z,99911.94
2022-10-21T19:49:34.024Z,99908.34
2022-10-21T19:51:37.254Z,99907.56
2022-10-21T19:53:40.122Z,99909.53
2022-10-21T19:55:42.069Z,99905.13
2022-10-21T19:57:43.927Z,99915.16
2022-10-21T19:59:45.808Z,99899.34
2022-10-21T20:01:47.843Z,99912.94
2022-10-21T20:04:32.560Z,99912.59
2022-10-21T20:06:37.985Z,99909.88
2022-10-21T20:08:40.211Z,99914.31
2022-10-21T20:10:42.105Z,99919.06
2022-10-21T20:12:43.939Z,99914.34
2022-10-21T20:14:45.801Z,99918.56
2022-10-21T20:16:49.093Z,99919.31
2022-10-21T20:18:51.294Z,99908.41
2022-10-21T20:20:54.467Z,99917.66
2022-10-21T20:22:56.550Z,99917.28
2022-10-21T20:24:58.416Z,99916.31
2022-10-21T20:27:02.281Z,99921.50
2022-10-21T20:29:04.385Z,99913.63
2022-10-21T20:31:10.407Z,99915.00
2022-10-21T20:33:12.682Z,99913.97
2022-10-21T20:35:14.628Z,99906.75
2022-10-21T20:37:16.754Z,99917.66
2022-10-21T20:39:18.711Z,99903.97
2022-10-21T20:41:23.671Z,99899.50
2022-10-21T20:43:28.485Z,99901.13
2022-10-21T20:45:30.514Z,99891.19
2022-10-21T20:47:32.349Z,99887.97
2022-10-21T20:49:34.307Z,99883.59
2022-10-21T20:51:38.119Z,99887.31
2022-10-21T20:53:53.526Z,99890.69
2022-10-21T20:55:56.309Z,99888.69
2022-10-21T20:57:58.364Z,99882.25
2022-10-21T21:00:00.495Z,99875.94
2022-10-21T21:02:02.334Z,99878.78
2022-10-21T21:04:08.481Z,99875.34
2022-10-21T21:06:12.329Z,99870.94
2022-10-21T21:08:14.192Z,99871.59
2022-10-21T21:10:16.252Z,99867.16
2022-10-21T21:12:18.403Z,99869.94
2022-10-21T21:14:20.417Z,99867.22
2022-10-21T21:16:25.391Z,99861.91
2022-10-21T21:18:27.622Z,99853.00
2022-10-21T21:20:29.729Z,99849.84
2022-10-21T21:22:31.643Z,99835.31
2022-10-21T21:24:33.655Z,99841.25
2022-10-21T21:26:37.948Z,99847.53
2022-10-21T21:29:42.257Z,99843.50
2022-10-21T21:31:44.497Z,99847.88
2022-10-21T21:33:46.345Z,99849.91
2022-10-21T21:35:48.626Z,99847.94
2022-10-21T21:37:50.739Z,99842.84
2022-10-21T21:39:52.732Z,99844.59
2022-10-21T21:41:54.571Z,99839.28
2022-10-21T21:44:22.106Z,99830.41
2022-10-21T21:46:25.248Z,99835.19
2022-10-21T21:48:27.946Z,99821.59
2022-10-21T21:50:29.877Z,99822.41
2022-10-21T21:52:32.383Z,99812.56
2022-10-21T21:54:34.220Z,99815.25
2022-10-21T21:56:36.532Z,99809.09
2022-10-21T21:58:39.595Z,99795.59
2022-10-21T22:00:41.618Z,99789.41
2022-10-21T22:02:44.162Z,99791.22
2022-10-21T22:04:46.285Z,99801.25
2022-10-21T22:06:48.392Z,99795.09
2022-10-21T22:08:51.428Z,99785.97
2022-10-21T22:10:53.536Z,99784.22
2022-10-21T22:12:56.750Z,99790.66
2022-10-21T22:14:58.849Z,99792.41
2022-10-21T22:17:00.968Z,99786.28
2022-10-21T22:19:02.940Z,99792.84
2022-10-21T22:21:08.373Z,99795.56
2022-10-21T22:23:10.234Z,99786.63
2022-10-21T22:25:14.569Z,99785.84
2022-10-21T22:27:16.561Z,99791.88
2022-10-21T22:29:18.771Z,99779.09
2022-10-21T22:31:28.947Z,99781.69
2022-10-21T22:33:33.259Z,99784.66
2022-10-21T22:35:38.828Z,99779.25
2022-10-21T22:37:41.071Z,99778.19
2022-10-21T22:39:43.376Z,99778.97
2022-10-21T22:41:45.292Z,99772.84
2022-10-21T22:43:47.375Z,99778.19
2022-10-21T22:45:49.255Z,99779.19
2022-10-21T22:47:51.085Z,99782.81
2022-10-21T22:49:53.144Z,99773.00
2022-10-21T22:51:55.142Z,99772.94
2022-10-21T22:53:57.129Z,99775.69
2022-10-21T22:55:59.416Z,99787.66
2022-10-21T22:58:01.522Z,99786.69
2022-10-21T23:00:04.380Z,99785.13
2022-10-21T23:02:06.551Z,99787.22
2022-10-21T23:04:10.051Z,99781.97
2022-10-21T23:06:11.903Z,99787.50
2022-10-21T23:08:18.283Z,99782.38
2022-10-21T23:10:20.232Z,99781.44
2022-10-21T23:12:22.114Z,99786.84
2022-10-21T23:14:24.126Z,99784.94
2022-10-21T23:16:26.091Z,99782.53
2022-10-21T23:18:28.425Z,99779.16
2022-10-21T23:20:30.452Z,99783.91
2022-10-21T23:22:32.436Z,99782.22
2022-10-21T23:24:34.276Z,99773.31
2022-10-21T23:26:51.266Z,99773.72
2022-10-21T23:28:53.277Z,99776.09
2022-10-21T23:30:55.456Z,99781.56
2022-10-21T23:32:57.377Z,99777.13
2022-10-21T23:34:59.412Z,99774.72
2022-10-21T23:37:01.333Z,99766.75
2022-10-21T23:39:04.001Z,99770.41
2022-10-21T23:41:05.886Z,99770.47
2022-10-21T23:43:08.039Z,99772.38
2022-10-21T23:45:11.538Z,99778.84
2022-10-21T23:47:13.520Z,99778.16
2022-10-21T23:49:15.547Z,99779.03
2022-10-21T23:51:17.650Z,99769.16
2022-10-21T23:53:19.645Z,99771.25
2022-10-21T23:55:21.712Z,99775.00
2022-10-21T23:57:23.911Z,99776.69
2022-10-21T23:59:25.766Z,99770.41
